• Join FlightAware (Why Join?)
  • Login
  • US Flag 
05:24PM EDT


 

Airport Tracker/Info


-or-


 

Live Flight TrackerFlight Track Log ✈ LAN461 ✈ 17-Sep-2013 ✈ SCEL / SCL - SABE / AEP

Flight Track Log - Related Links

Times and Time Zones

All times are in EDT time to prevent confusion due to time zone crossing. See the LAN461 flight status page for this flight to view local times or setup timezone preferences in your user account.

Time Position Orientation Groundspeed Altitude Reporting Facility
EDT Latitude Longitude Course Direction KTS MPH feet Rate Location/Type
04:53PM -33.7360 -70.7840 177° South 356 410 12,100  Level FlightAware
04:53PM -33.8030 -70.7730 172° South 363 418 14,000 2,640 Climbing FlightAware
04:53PM -33.8170 -70.7620 147° Southeast 366 421 14,300 2,160 Climbing FlightAware
04:54PM -33.8370 -70.7340 131° Southeast 371 427 15,100 2,460 Climbing FlightAware
04:54PM -33.8680 -70.6850 127° Southeast 377 434 16,200 2,160 Climbing FlightAware
04:55PM -33.9120 -70.6170 128° Southeast 385 443 17,600 1,980 Climbing FlightAware
04:55PM -33.9490 -70.5610 129° Southeast 399 459 18,600 1,860 Climbing FlightAware
04:56PM -33.9920 -70.4850 124° Southeast 412 474 19,900 1,800 Climbing FlightAware
04:57PM -34.0250 -70.3680 109° East 430 495 21,400 1,620 Climbing FlightAware
04:58PM -34.0500 -70.2830 110° East 434 499 22,400 1,320 Climbing FlightAware
04:58PM -34.0630 -70.2370 109° East 445 512 22,900 840 Climbing FlightAware
04:59PM -34.0930 -70.1320 109° East 445 512 23,400 360 Climbing FlightAware
04:59PM -34.1140 -70.0600 109° East 445 512 23,400  Level FlightAware
05:00PM -34.1340 -69.9880 109° East 445 512 23,400  Level FlightAware
05:00PM -34.1550 -69.9160 109° East 445 512 23,400  Level FlightAware
05:01PM -34.1750 -69.8440 109° East 445 512 23,400  Level FlightAware
05:02PM -34.1960 -69.7720 109° East 445 512 23,400 1,380 Level FlightAware
05:04PM -34.2118 -69.5689 95° East  Level Estimated
05:05PM -34.2203 -69.4571 95° East  Level Estimated
05:05PM -34.3220 -69.0290 95° East 32,100  Level FlightAware
05:06PM -34.2288 -69.3452 95° East  Level Estimated
05:08PM -34.3373 -68.7936 95° East  Level Estimated
05:09PM -34.3444 -68.6814 94° East  Level Estimated
05:09PM -34.3970 -68.4770 94° East 35,000  Level FlightAware
05:09PM -34.4130 -68.3590 99° East 514 592 35,000  Level FlightAware
05:10PM -34.4240 -68.2720 99° East 514 592 35,000  Level FlightAware
05:11PM -34.4350 -68.1850 99° East 514 592 35,000  Level FlightAware
05:11PM -34.4530 -68.0520 99° East 514 592 35,000  Level FlightAware
05:12PM -34.4640 -67.9650 99° East 514 592 35,000  Level FlightAware
05:13PM -34.4750 -67.8820 99° East 514 592 35,000  Level FlightAware
05:13PM -34.4860 -67.7930 99° East 514 592 35,000  Level FlightAware
05:14PM -34.4980 -67.7050 99° East 514 592 35,000  Level FlightAware
05:14PM -34.5090 -67.6180 99° East 514 592 35,000  Level FlightAware
05:15PM -34.5210 -67.5310 100° East 514 592 35,000  Level FlightAware
05:16PM -34.5320 -67.4440 99° East 514 592 35,000  Level FlightAware
05:16PM -34.5440 -67.3540 99° East 514 592 35,000  Level FlightAware
05:17PM -34.5540 -67.2720 98° East 514 592 35,000  Level FlightAware
05:17PM -34.5660 -67.1820 99° East 514 592 35,000  Level FlightAware
05:18PM -34.5780 -67.0920 99° East 514 592 35,000  Level FlightAware
05:19PM -34.5890 -67.0050 99° East 514 592 35,000 -120 Level FlightAware
05:21PM -34.5955 -66.7946 92° East  Level Estimated
05:22PM -34.5988 -66.6818 92° East  Level Estimated
05:23PM -34.6020 -66.5691 92° East  Level Estimated
05:24PM -34.6051 -66.4563 92° East  Level Estimated
05:25PM -34.6081 -66.3435 92° East  Level Estimated
05:26PM -34.6110 -66.2308 92° East  Level Estimated
05:27PM -34.6138 -66.1180 92° East  Level Estimated
05:28PM -34.6165 -66.0052 92° East  Level Estimated
05:29PM -34.6191 -65.8924 92° East  Level Estimated
05:30PM -34.6216 -65.7796 92° East  Level Estimated
05:31PM -34.6240 -65.6667 92° East  Level Estimated
05:32PM -34.6263 -65.5539 91° East  Level Estimated
05:33PM -34.6284 -65.4411 91° East  Level Estimated
05:34PM -34.6305 -65.3283 91° East  Level Estimated
05:35PM -34.6325 -65.2154 91° East  Level Estimated
05:36PM -34.6343 -65.1026 91° East  Level Estimated
05:37PM -34.6361 -64.9897 91° East  Level Estimated
05:38PM -34.6378 -64.8769 91° East  Level Estimated
05:39PM -34.6393 -64.7640 91° East  Level Estimated
05:40PM -34.6408 -64.6512 91° East  Level Estimated
05:41PM -34.6421 -64.5383 91° East  Level Estimated
05:42PM -34.6433 -64.4254 91° East  Level Estimated
05:43PM -34.6445 -64.3126 91° East  Level Estimated
05:44PM -34.6455 -64.1997 91° East  Level Estimated
05:45PM -34.6464 -64.0868 91° East  Level Estimated
05:46PM -34.6473 -63.9739 91° East  Level Estimated
05:47PM -34.6480 -63.8610 90° East  Level Estimated
05:48PM -34.6486 -63.7481 90° East  Level Estimated
05:49PM -34.6491 -63.6353 90° East  Level Estimated
05:50PM -34.6495 -63.5224 90° East  Level Estimated
05:51PM -34.6498 -63.4095 90° East  Level Estimated
05:52PM -34.6500 -63.2966 90° East  Level Estimated
05:53PM -34.6501 -63.1837 90° East  Level Estimated
05:54PM -34.6501 -63.0708 90° East  Level Estimated
05:55PM -34.6500 -62.9579 90° East  Level Estimated
05:56PM -34.6498 -62.8450 90° East  Level Estimated
05:57PM -34.6495 -62.7321 90° East  Level Estimated
05:57PM -35.0150 -60.3700 90° East 459 528 30,500  Level FlightAware
05:58PM -35.0170 -60.2800 92° East 441 507 29,900 -1,140 Descending FlightAware
05:58PM -35.0180 -60.1920 91° East 423 487 29,200 -1,740 Descending FlightAware
05:59PM -35.0190 -60.1150 91° East 427 491 27,900 -1,860 Descending FlightAware
05:59PM -35.0210 -60.0310 92° East 414 476 27,100 -1,440 Descending FlightAware
06:00PM -35.0220 -59.9480 91° East 401 461 26,200 -1,440 Descending FlightAware
06:00PM -35.0230 -59.8690 91° East 388 447 25,400 -1,320 Descending FlightAware
06:01PM -35.0240 -59.7910 91° East 377 434 24,700 -1,320 Descending FlightAware
06:02PM -35.0250 -59.7170 91° East 372 428 23,900 -2,100 Descending FlightAware
06:02PM -35.0180 -59.6170 85° East 389 448 21,800 -2,400 Descending FlightAware
06:03PM -35.0030 -59.5850 60° Northeast 382 440 21,400 -1,500 Descending FlightAware
06:03PM -34.9720 -59.5300 55° Northeast 369 425 20,600 -2,040 Descending FlightAware
06:04PM -34.9380 -59.4670 57° Northeast 372 428 19,100 -2,520 Descending FlightAware
06:04PM -34.9030 -59.4040 56° Northeast 380 437 17,600 -2,160 Descending FlightAware
06:05PM -34.8700 -59.3430 57° Northeast 371 427 16,600 -1,860 Descending FlightAware
06:06PM -34.8370 -59.2840 56° Northeast 368 423 15,500 -1,860 Descending FlightAware
06:06PM -34.8050 -59.2260 56° Northeast 360 414 14,500 -1,800 Descending FlightAware
06:07PM -34.7710 -59.1650 56° Northeast 355 409 13,400 -1,980 Descending FlightAware
06:07PM -34.7590 -59.1370 62° Northeast 354 407 12,800 -1,920 Descending FlightAware
06:08PM -34.7420 -59.0770 71° East 346 398 11,900 -1,500 Descending FlightAware
06:08PM -34.7240 -59.0120 71° East 336 387 11,100 -1,680 Descending FlightAware
06:09PM -34.7060 -58.9470 71° East 335 386 9,900 -1,740 Descending FlightAware
06:09PM -34.6950 -58.9110 70° East 325 374 9,500 -1,200 Descending FlightAware
06:09PM -34.6850 -58.8740 72° East 316 364 9,100 -1,320 Descending FlightAware
06:10PM -34.6760 -58.8400 72° East 316 364 8,600 -1,500 Descending FlightAware
06:10PM -34.6660 -58.8060 70° East 312 359 8,100 -1,740 Descending FlightAware
06:10PM -34.6620 -58.7860 76° East 309 356 7,700 -1,800 Descending FlightAware
06:11PM -34.6670 -58.7320 96° East 300 345 6,800 -1,500 Descending FlightAware
06:11PM -34.6700 -58.7050 98° East 297 342 6,500 -1,080 Descending FlightAware
06:12PM -34.6750 -58.6510 96° East 285 328 5,900 -1,380 Descending FlightAware
06:12PM -34.6780 -58.6180 96° East 285 328 5,300 -1,320 Descending FlightAware
06:12PM -34.6790 -58.6000 94° East 278 320 5,200 -600 Descending FlightAware
06:13PM -34.6820 -58.5690 97° East 265 305 5,000 -300 Descending FlightAware
06:13PM -34.6850 -58.5380 97° East 244 281 5,000  Level FlightAware
06:13PM -34.6880 -58.5060 97° East 237 273 5,000  Level FlightAware
06:14PM -34.6890 -58.4850 93° East 237 273 5,000  Level FlightAware
06:14PM -34.6920 -58.4520 96° East 236 272 5,000  Level FlightAware
06:14PM -34.6950 -58.4260 98° East 235 270 5,000 -180 Level FlightAware
06:15PM -34.6970 -58.4010 96° East 230 265 4,900 -540 Descending FlightAware
06:15PM -34.6990 -58.3800 97° East 221 254 4,700 -720 Descending FlightAware
06:15PM -34.7010 -58.3570 96° East 209 241 4,500 -900 Descending FlightAware
06:16PM -34.7030 -58.3330 96° East 210 242 4,100 -1,260 Descending FlightAware
06:16PM -34.7050 -58.3060 95° East 209 241 3,600 -1,260 Descending FlightAware
06:16PM -34.7070 -58.2810 96° East 208 239 3,200 -1,200 Descending FlightAware
06:17PM -34.6990 -58.2510 72° East 213 245 2,600 -1,260 Descending FlightAware
06:17PM -34.6950 -58.2480 32° Northeast 210 242 2,500 -1,500 Descending FlightAware
06:17PM -34.6870 -58.2470 North 199 229 2,300 -1,080 Descending FlightAware
06:17PM -34.6710 -58.2550 338° Northwest 176 203 2,000 -600 Descending FlightAware
06:18PM -34.6570 -58.2680 323° Northwest 150 173 1,900 -180 Descending FlightAware
06:18PM -34.6450 -58.2770 328° Northwest 143 165 1,900  Level FlightAware
06:18PM -34.6330 -58.2840 334° Northwest 142 163 1,900  Level FlightAware
06:19PM -34.6300 -58.2880 312° West 129 148 1,900  Level FlightAware
06:19PM -34.6230 -58.3000 305° West 131 151 1,900 -300 Level FlightAware
06:19PM -34.6160 -58.3130 303° West 133 153 1,700 -780 Descending FlightAware
06:20PM -34.6090 -58.3260 303° West 130 150 1,400 -720 Descending FlightAware
06:20PM -34.6040 -58.3350 304° West 129 148 1,300 -540 Descending FlightAware
06:20PM -34.5970 -58.3470 305° West 132 152 1,100 -780 Descending FlightAware
06:20PM -34.5900 -58.3590 305° West 134 154 800 -720 Descending FlightAware
06:21PM -34.5820 -58.3750 301° West 130 150 600 -660 Descending FlightAware
06:21PM -34.5780 -58.3830 301° West 137 158 400 -360 Descending FlightAware
06:22PM -34.5650 -58.4050 306° West 133 153 300 -180 Descending FlightAware
06:24PM -34.5592 -58.4156 90° East  Level Estimated
06:25PM -34.5592 -58.4156 90° East  Level Estimated